Time;durP1;ratioP1;P1;durP2;ratioP2;P2;SDS_P1;SDS_P2;PMS_P1;PMS_P2;Temp;Humidity;BMP_temperature;BMP_pressure;BME280_temperature;BME280_humidity;BME280_pressure;Samples;Min_cycle;Max_cycle;Signal;HPM_P1;HPM_P2
2022/11/15 00:00:53;;;;;;;21.27;10.30;;;;;;;;;;5074881;28;20076;-91
2022/11/15 00:03:24;;;;;;;17.23;10.15;;;;;;;;;;5074019;28;20048;-92
2022/11/15 00:05:51;;;;;;;16.65;10.90;;;;;;;;;;5074906;28;20048;-93
2022/11/15 00:08:18;;;;;;;19.15;11.65;;;;;;;;;;5074143;28;20060;-93
2022/11/15 00:10:54;;;;;;;18.17;11.32;;;;;;;;;;5073491;28;20500;-94
2022/11/15 00:13:22;;;;;;;17.73;10.77;;;;;;;;;;5074579;28;20051;-93
2022/11/15 00:15:49;;;;;;;18.75;10.93;;;;;;;;;;5075415;28;20048;-92
2022/11/15 00:18:16;;;;;;;17.52;11.07;;;;;;;;;;5074551;28;20052;-93
2022/11/15 00:20:44;;;;;;;13.15;10.25;;;;;;;;;;5074550;28;20054;-94
2022/11/15 00:23:12;;;;;;;12.32;8.60;;;;;;;;;;5075327;28;20051;-95
2022/11/15 00:25:39;;;;;;;15.43;9.80;;;;;;;;;;5075494;28;20143;-91
2022/11/15 00:28:06;;;;;;;15.98;9.50;;;;;;;;;;5074389;28;20044;-93
2022/11/15 00:30:34;;;;;;;10.40;8.10;;;;;;;;;;5073830;28;20048;-95
2022/11/15 00:33:05;;;;;;;12.45;8.48;;;;;;;;;;5076820;28;20049;-94
2022/11/15 00:35:33;;;;;;;11.02;7.70;;;;;;;;;;5074491;28;20048;-92
2022/11/15 00:38:01;;;;;;;9.23;7.00;;;;;;;;;;5074375;28;20052;-93
2022/11/15 00:40:30;;;;;;;11.05;7.53;;;;;;;;;;5073881;28;20059;-95
2022/11/15 00:42:58;;;;;;;11.23;7.28;;;;;;;;;;5074423;28;20040;-93
2022/11/15 00:45:26;;;;;;;9.32;6.93;;;;;;;;;;5073510;28;20116;-93
2022/11/15 00:47:54;;;;;;;10.60;6.85;;;;;;;;;;5073989;28;20058;-94
2022/11/15 00:50:22;;;;;;;8.90;6.43;;;;;;;;;;5074099;28;20087;-94
2022/11/15 00:52:49;;;;;;;7.75;5.63;;;;;;;;;;5073473;28;20051;-93
2022/11/15 00:55:17;;;;;;;9.07;5.78;;;;;;;;;;5073447;28;20076;-93
2022/11/15 00:57:44;;;;;;;7.45;5.25;;;;;;;;;;5073300;28;20048;-92
2022/11/15 01:00:12;;;;;;;7.43;5.55;;;;;;;;;;5073632;28;20063;-94
2022/11/15 01:02:40;;;;;;;7.25;5.38;;;;;;;;;;5073095;28;20044;-92
2022/11/15 01:05:07;;;;;;;8.65;5.60;;;;;;;;;;5071854;28;20055;-94
2022/11/15 01:07:34;;;;;;;6.32;5.38;;;;;;;;;;5072879;28;20048;-95
2022/11/15 01:10:02;;;;;;;6.78;5.20;;;;;;;;;;5074190;28;20397;-93
2022/11/15 01:12:29;;;;;;;7.30;5.35;;;;;;;;;;5076504;28;20054;-94
2022/11/15 01:14:56;;;;;;;9.38;5.10;;;;;;;;;;5076443;28;20410;-93
2022/11/15 01:17:24;;;;;;;5.47;4.47;;;;;;;;;;5076222;28;20048;-95
2022/11/15 01:19:51;;;;;;;5.75;5.07;;;;;;;;;;5076152;28;20055;-94
2022/11/15 01:22:19;;;;;;;6.75;5.32;;;;;;;;;;5076397;28;20515;-93
2022/11/15 01:24:46;;;;;;;6.40;5.15;;;;;;;;;;5076215;28;20052;-91
2022/11/15 01:27:13;;;;;;;8.15;5.95;;;;;;;;;;5076275;28;20044;-92
2022/11/15 01:29:40;;;;;;;6.07;5.47;;;;;;;;;;5075962;28;20052;-92
2022/11/15 01:32:08;;;;;;;6.75;4.80;;;;;;;;;;5076256;28;20476;-91
2022/11/15 01:34:35;;;;;;;9.05;6.32;;;;;;;;;;5093452;28;20524;-91
2022/11/15 01:37:02;;;;;;;10.25;6.45;;;;;;;;;;5093960;28;20052;-90
2022/11/15 01:39:29;;;;;;;7.18;6.40;;;;;;;;;;5075963;28;20534;-92
2022/11/15 01:41:57;;;;;;;10.43;7.00;;;;;;;;;;5076192;28;20052;-93
2022/11/15 01:44:31;;;;;;;9.68;7.22;;;;;;;;;;5075910;28;20048;-93
2022/11/15 01:46:59;;;;;;;10.18;7.32;;;;;;;;;;5076018;28;20044;-92
2022/11/15 01:49:27;;;;;;;13.43;8.70;;;;;;;;;;5093767;28;20495;-94
2022/11/15 01:51:55;;;;;;;13.55;10.05;;;;;;;;;;5075876;28;20063;-92
2022/11/15 01:54:23;;;;;;;17.45;9.70;;;;;;;;;;5076200;28;20044;-96
2022/11/15 01:56:55;;;;;;;12.70;9.02;;;;;;;;;;5076637;28;20139;-93
2022/11/15 01:59:22;;;;;;;12.52;9.07;;;;;;;;;;5076196;28;20052;-92
2022/11/15 02:01:50;;;;;;;13.65;8.43;;;;;;;;;;5076785;28;20052;-94
2022/11/15 02:04:19;;;;;;;11.25;8.38;;;;;;;;;;5076126;28;20048;-92
2022/11/15 02:06:47;;;;;;;10.45;6.68;;;;;;;;;;5076099;28;20054;-94
2022/11/15 02:09:14;;;;;;;10.73;7.00;;;;;;;;;;5076254;28;20426;-93
2022/11/15 02:11:42;;;;;;;10.32;7.03;;;;;;;;;;5080448;28;20056;-94
2022/11/15 02:14:09;;;;;;;10.10;6.68;;;;;;;;;;5092729;28;20036;-93
2022/11/15 02:16:36;;;;;;;8.10;6.65;;;;;;;;;;5084608;28;20050;-93
2022/11/15 02:19:13;;;;;;;8.20;6.97;;;;;;;;;;5079651;28;20214;-93
2022/11/15 02:21:51;;;;;;;7.30;6.43;;;;;;;;;;5079816;28;20056;-93
2022/11/15 02:24:25;;;;;;;14.50;7.90;;;;;;;;;;5080676;28;20048;-95
2022/11/15 02:27:11;;;;;;;8.55;6.53;;;;;;;;;;5079749;28;20048;-95
2022/11/15 02:29:41;;;;;;;8.00;5.85;;;;;;;;;;5079517;28;20048;-94
2022/11/15 02:32:35;;;;;;;8.43;5.80;;;;;;;;;;5079310;28;20055;-92
2022/11/15 02:35:15;;;;;;;7.28;6.00;;;;;;;;;;5049830;28;20048;-92
2022/11/15 02:38:03;;;;;;;6.47;5.80;;;;;;;;;;5097032;28;20044;-95
2022/11/15 02:40:50;;;;;;;10.43;7.00;;;;;;;;;;5079880;28;20052;-94
2022/11/15 02:46:13;;;;;;;7.75;6.00;;;;;;;;;;5097097;28;20062;-91
2022/11/15 02:48:41;;;;;;;7.50;5.15;;;;;;;;;;5096969;28;20492;-92
2022/11/15 02:51:09;;;;;;;8.35;5.78;;;;;;;;;;5079025;28;20067;-91
2022/11/15 02:53:36;;;;;;;9.98;6.13;;;;;;;;;;5096883;28;20556;-92
2022/11/15 02:56:03;;;;;;;10.60;5.93;;;;;;;;;;5097015;28;20059;-90
2022/11/15 02:58:46;;;;;;;8.57;6.55;;;;;;;;;;5096846;28;20054;-91
2022/11/15 03:01:22;;;;;;;10.80;6.82;;;;;;;;;;5079350;28;20044;-92
2022/11/15 03:03:57;;;;;;;9.20;7.50;;;;;;;;;;5079017;28;20606;-95
2022/11/15 03:06:48;;;;;;;16.52;8.35;;;;;;;;;;5079259;28;20079;-94
2022/11/15 03:09:21;;;;;;;13.88;8.27;;;;;;;;;;5079452;28;20071;-95
2022/11/15 03:11:53;;;;;;;11.85;7.78;;;;;;;;;;5079108;28;20058;-94
2022/11/15 03:14:31;;;;;;;11.40;7.57;;;;;;;;;;5078928;28;20054;-96
2022/11/15 03:17:01;;;;;;;11.90;6.78;;;;;;;;;;5079112;28;20078;-93
2022/11/15 03:19:40;;;;;;;9.68;6.55;;;;;;;;;;5078799;28;20057;-95
2022/11/15 03:22:09;;;;;;;9.15;6.00;;;;;;;;;;5078887;28;20048;-94
2022/11/15 03:24:38;;;;;;;8.85;5.93;;;;;;;;;;5078541;28;20126;-94
2022/11/15 03:27:07;;;;;;;9.23;5.88;;;;;;;;;;5078405;28;20048;-92
2022/11/15 03:29:36;;;;;;;8.00;6.22;;;;;;;;;;5095142;28;20059;-93
2022/11/15 03:32:06;;;;;;;6.55;5.32;;;;;;;;;;5078128;28;20593;-92
2022/11/15 03:34:36;;;;;;;10.00;6.82;;;;;;;;;;5078174;28;20053;-91
2022/11/15 03:37:04;;;;;;;7.28;5.68;;;;;;;;;;5078120;28;20404;-93
2022/11/15 03:39:31;;;;;;;7.13;5.63;;;;;;;;;;5077821;28;20055;-93
2022/11/15 03:42:07;;;;;;;8.40;5.75;;;;;;;;;;5077995;28;20511;-93
2022/11/15 03:44:42;;;;;;;8.68;6.28;;;;;;;;;;5095256;28;20045;-92
2022/11/15 03:47:17;;;;;;;8.07;6.32;;;;;;;;;;5095879;28;20063;-93
2022/11/15 03:49:51;;;;;;;10.30;6.07;;;;;;;;;;5095341;28;20079;-93
2022/11/15 03:52:19;;;;;;;7.38;6.18;;;;;;;;;;5095785;28;20058;-93
2022/11/15 03:54:54;;;;;;;9.43;6.13;;;;;;;;;;5077550;28;20047;-92
2022/11/15 03:57:21;;;;;;;9.20;5.80;;;;;;;;;;5095357;28;20058;-93
2022/11/15 03:59:49;;;;;;;8.48;6.22;;;;;;;;;;5095092;28;20048;-92
2022/11/15 04:02:16;;;;;;;10.60;6.43;;;;;;;;;;5077480;28;20081;-93
2022/11/15 04:04:43;;;;;;;9.50;6.72;;;;;;;;;;5095416;28;20055;-93
2022/11/15 04:07:10;;;;;;;10.23;7.70;;;;;;;;;;5095894;28;20055;-92
2022/11/15 04:10:01;;;;;;;11.02;7.65;;;;;;;;;;5095603;28;20048;-93
2022/11/15 04:12:31;;;;;;;9.32;7.38;;;;;;;;;;5095998;28;20044;-91
2022/11/15 04:15:07;;;;;;;8.75;6.45;;;;;;;;;;5078160;28;20048;-92
2022/11/15 04:17:39;;;;;;;9.23;6.63;;;;;;;;;;5080600;28;20051;-92
2022/11/15 04:25:50;;;;;;;16.45;11.32;;;;;;;;;;5094724;28;20048;-92
2022/11/15 04:28:17;;;;;;;16.23;10.25;;;;;;;;;;5077176;28;20040;-92
2022/11/15 04:30:44;;;;;;;16.65;10.75;;;;;;;;;;5076989;28;20567;-92
2022/11/15 04:33:11;;;;;;;18.38;11.52;;;;;;;;;;5077029;28;20052;-92
2022/11/15 04:35:39;;;;;;;32.90;19.73;;;;;;;;;;5076726;28;20126;-92
2022/11/15 04:38:07;;;;;;;22.27;12.98;;;;;;;;;;5077070;28;20412;-91
2022/11/15 04:40:35;;;;;;;24.05;14.40;;;;;;;;;;5086931;28;20048;-92
2022/11/15 04:43:02;;;;;;;21.90;14.93;;;;;;;;;;5081752;28;20083;-91
2022/11/15 04:45:30;;;;;;;23.98;13.57;;;;;;;;;;5094666;28;20052;-91
2022/11/15 04:47:58;;;;;;;22.95;14.07;;;;;;;;;;5076748;28;20059;-92
2022/11/15 04:50:25;;;;;;;20.25;13.38;;;;;;;;;;5094127;28;20052;-92
2022/11/15 04:52:53;;;;;;;22.00;13.20;;;;;;;;;;5076741;28;20044;-92
2022/11/15 04:55:21;;;;;;;18.60;12.77;;;;;;;;;;5076344;28;20059;-92
2022/11/15 04:57:48;;;;;;;19.15;12.98;;;;;;;;;;5076542;28;20051;-92
2022/11/15 05:00:17;;;;;;;21.67;14.20;;;;;;;;;;5094451;28;20119;-92
2022/11/15 05:05:30;;;;;;;17.10;11.77;;;;;;;;;;5094159;28;20474;-92
2022/11/15 05:07:57;;;;;;;15.95;8.52;;;;;;;;;;5093783;28;20055;-92
2022/11/15 05:10:24;;;;;;;15.07;8.68;;;;;;;;;;5076033;28;20060;-92
2022/11/15 05:12:51;;;;;;;19.45;8.10;;;;;;;;;;5076561;28;20048;-91
2022/11/15 05:15:18;;;;;;;11.32;8.32;;;;;;;;;;5076186;28;20048;-92
2022/11/15 05:17:46;;;;;;;13.60;7.90;;;;;;;;;;5076594;28;20044;-91
2022/11/15 05:20:13;;;;;;;12.30;8.23;;;;;;;;;;5093832;28;20090;-91
2022/11/15 05:22:41;;;;;;;16.15;9.00;;;;;;;;;;5094060;28;20589;-92
2022/11/15 05:25:08;;;;;;;17.02;9.45;;;;;;;;;;5093900;28;20055;-92
2022/11/15 05:27:35;;;;;;;18.35;9.70;;;;;;;;;;5076527;28;20040;-92
2022/11/15 05:30:02;;;;;;;12.13;9.00;;;;;;;;;;5076164;28;20575;-92
2022/11/15 05:32:30;;;;;;;13.07;7.85;;;;;;;;;;5075993;28;20055;-91
2022/11/15 05:34:57;;;;;;;13.27;7.43;;;;;;;;;;5076081;28;20047;-92
2022/11/15 05:37:24;;;;;;;13.10;7.30;;;;;;;;;;5075987;28;20147;-92
2022/11/15 05:39:52;;;;;;;11.48;7.30;;;;;;;;;;5093836;28;20474;-92
2022/11/15 05:42:19;;;;;;;10.60;7.43;;;;;;;;;;5093773;28;20048;-91
2022/11/15 05:44:48;;;;;;;14.50;7.28;;;;;;;;;;5075667;28;20404;-92
2022/11/15 05:47:21;;;;;;;13.93;7.80;;;;;;;;;;5075863;28;20043;-91
2022/11/15 05:49:49;;;;;;;14.48;6.75;;;;;;;;;;5075523;28;20066;-92
2022/11/15 05:52:17;;;;;;;12.05;7.70;;;;;;;;;;5078577;28;20054;-92
2022/11/15 05:54:44;;;;;;;8.73;6.97;;;;;;;;;;5097710;28;20039;-91
2022/11/15 05:57:12;;;;;;;15.27;8.43;;;;;;;;;;5097494;28;20059;-92
2022/11/15 05:59:40;;;;;;;15.82;8.35;;;;;;;;;;5079855;28;20403;-92
2022/11/15 06:02:08;;;;;;;17.38;9.30;;;;;;;;;;5079297;28;20579;-92
2022/11/15 06:04:35;;;;;;;17.05;8.95;;;;;;;;;;5097659;28;20472;-92
2022/11/15 06:07:02;;;;;;;16.73;10.13;;;;;;;;;;5079614;28;20059;-91
2022/11/15 06:09:29;;;;;;;27.58;19.48;;;;;;;;;;5097221;28;20044;-92
2022/11/15 06:11:57;;;;;;;18.75;12.00;;;;;;;;;;5079481;28;20047;-92
2022/11/15 06:14:24;;;;;;;17.88;10.15;;;;;;;;;;5079671;28;20516;-92
2022/11/15 06:16:51;;;;;;;31.27;10.38;;;;;;;;;;5079479;28;20048;-92
2022/11/15 06:19:18;;;;;;;16.55;9.55;;;;;;;;;;5079706;28;20052;-91
2022/11/15 06:21:45;;;;;;;19.60;9.50;;;;;;;;;;5079054;28;20044;-92
2022/11/15 06:24:13;;;;;;;17.23;9.80;;;;;;;;;;5079352;28;20051;-91
2022/11/15 06:26:40;;;;;;;16.13;9.27;;;;;;;;;;5079236;28;20508;-92
2022/11/15 06:29:07;;;;;;;20.30;10.10;;;;;;;;;;5079166;28;20403;-92
2022/11/15 06:31:35;;;;;;;15.90;10.10;;;;;;;;;;5079062;28;20063;-94
2022/11/15 06:34:03;;;;;;;21.02;11.45;;;;;;;;;;5079700;28;20130;-92
2022/11/15 06:36:30;;;;;;;18.38;9.55;;;;;;;;;;5096944;28;20071;-92
2022/11/15 06:39:00;;;;;;;14.00;9.10;;;;;;;;;;5079453;28;20048;-92
2022/11/15 06:41:27;;;;;;;14.35;8.18;;;;;;;;;;5096479;28;20045;-92
2022/11/15 06:43:54;;;;;;;14.13;7.20;;;;;;;;;;5096522;28;20048;-92
2022/11/15 06:46:21;;;;;;;14.07;8.38;;;;;;;;;;5079000;28;20143;-91
2022/11/15 06:48:51;;;;;;;12.75;7.68;;;;;;;;;;5078973;28;20059;-91
2022/11/15 06:51:19;;;;;;;15.75;8.25;;;;;;;;;;5096664;28;20113;-92
2022/11/15 06:53:46;;;;;;;15.80;7.63;;;;;;;;;;5096275;28;20044;-90
2022/11/15 06:56:13;;;;;;;14.68;7.88;;;;;;;;;;5096633;28;20047;-92
2022/11/15 06:58:40;;;;;;;19.92;9.13;;;;;;;;;;5079311;28;20044;-91
2022/11/15 07:01:09;;;;;;;10.55;7.93;;;;;;;;;;5078895;28;20044;-92
2022/11/15 07:03:41;;;;;;;16.70;10.63;;;;;;;;;;5079259;28;20102;-91
2022/11/15 07:06:09;;;;;;;20.15;12.55;;;;;;;;;;5107417;28;20075;-92
2022/11/15 07:08:37;;;;;;;15.68;10.80;;;;;;;;;;5101780;28;20044;-92
2022/11/15 07:11:06;;;;;;;14.30;9.93;;;;;;;;;;5078486;28;20056;-91
2022/11/15 07:13:34;;;;;;;18.23;10.82;;;;;;;;;;5078577;28;20051;-91
2022/11/15 07:16:03;;;;;;;81.10;54.20;;;;;;;;;;5078912;28;20590;-91
2022/11/15 07:18:31;;;;;;;64.22;43.33;;;;;;;;;;5078327;28;20045;-91
2022/11/15 07:21:01;;;;;;;38.33;21.52;;;;;;;;;;5078087;28;20044;-91
2022/11/15 07:23:28;;;;;;;33.65;18.65;;;;;;;;;;5078470;28;20484;-91
2022/11/15 07:25:59;;;;;;;44.55;18.30;;;;;;;;;;5096090;28;20560;-92
2022/11/15 07:28:26;;;;;;;31.63;19.50;;;;;;;;;;5078045;28;20484;-93
2022/11/15 07:30:54;;;;;;;39.05;16.23;;;;;;;;;;5078021;28;20533;-92
2022/11/15 07:33:22;;;;;;;28.92;13.85;;;;;;;;;;5096134;28;20083;-92
2022/11/15 07:35:49;;;;;;;32.10;10.95;;;;;;;;;;5077810;28;20055;-91
2022/11/15 07:38:20;;;;;;;37.15;14.45;;;;;;;;;;5095350;28;20048;-92
2022/11/15 07:40:47;;;;;;;29.48;10.85;;;;;;;;;;5077633;28;20127;-93
2022/11/15 07:43:15;;;;;;;31.67;11.65;;;;;;;;;;5095643;28;20059;-93
2022/11/15 07:45:43;;;;;;;32.30;12.25;;;;;;;;;;5095601;28;20044;-93
2022/11/15 07:48:10;;;;;;;23.95;11.45;;;;;;;;;;5095727;28;20086;-92
2022/11/15 07:50:41;;;;;;;42.95;20.60;;;;;;;;;;5078184;28;20052;-92
2022/11/15 07:53:10;;;;;;;49.92;24.80;;;;;;;;;;5078134;28;20052;-93
2022/11/15 07:55:37;;;;;;;122.18;49.42;;;;;;;;;;5077657;28;20043;-90
2022/11/15 07:58:05;;;;;;;70.10;26.50;;;;;;;;;;5095193;28;20136;-92
2022/11/15 08:00:33;;;;;;;51.28;17.15;;;;;;;;;;5095573;28;20064;-93
2022/11/15 08:03:04;;;;;;;84.72;33.38;;;;;;;;;;5077741;28;20040;-93
2022/11/15 08:05:31;;;;;;;77.95;25.65;;;;;;;;;;5077150;28;20417;-93
2022/11/15 08:07:59;;;;;;;85.43;30.02;;;;;;;;;;5094812;28;20578;-92
2022/11/15 08:10:27;;;;;;;69.40;27.60;;;;;;;;;;5094879;28;20052;-92
2022/11/15 08:12:58;;;;;;;68.20;25.60;;;;;;;;;;5076955;28;20050;-93
2022/11/15 08:15:26;;;;;;;86.93;37.35;;;;;;;;;;5076744;28;20051;-93
2022/11/15 08:18:00;;;;;;;47.15;25.30;;;;;;;;;;5095285;28;20051;-93
2022/11/15 08:20:31;;;;;;;23.63;13.73;;;;;;;;;;5076873;28;20044;-93
2022/11/15 08:23:00;;;;;;;;;;;;;;;;;;5077877;28;20051;-93
2022/11/15 08:25:28;;;;;;;30.05;17.45;;;;;;;;;;5094499;28;20299;-93
2022/11/15 08:28:00;;;;;;;21.48;13.30;;;;;;;;;;5076955;28;20059;-92
2022/11/15 08:30:28;;;;;;;20.83;12.23;;;;;;;;;;5077148;28;20044;-93
2022/11/15 08:32:57;;;;;;;22.35;13.40;;;;;;;;;;5077107;28;20091;-93
2022/11/15 08:35:24;;;;;;;19.02;12.75;;;;;;;;;;5077123;28;20465;-92
2022/11/15 08:37:55;;;;;;;18.58;10.50;;;;;;;;;;5077309;28;20561;-92
2022/11/15 08:40:22;;;;;;;13.10;10.02;;;;;;;;;;5076978;28;20416;-93
2022/11/15 08:42:50;;;;;;;16.48;10.52;;;;;;;;;;5076812;28;20048;-92
2022/11/15 08:45:17;;;;;;;20.35;11.20;;;;;;;;;;5094072;28;20472;-91
2022/11/15 08:47:45;;;;;;;18.40;10.48;;;;;;;;;;5076591;28;20572;-92
2022/11/15 08:50:19;;;;;;;15.05;10.05;;;;;;;;;;5077559;28;20468;-93
2022/11/15 08:52:50;;;;;;;32.75;11.40;;;;;;;;;;5076952;28;20131;-91
2022/11/15 08:55:17;;;;;;;16.88;10.82;;;;;;;;;;5076329;28;20086;-93
2022/11/15 08:57:44;;;;;;;26.70;13.55;;;;;;;;;;5076586;28;20047;-92
2022/11/15 09:00:12;;;;;;;15.40;10.48;;;;;;;;;;5076606;28;20048;-92
2022/11/15 09:02:40;;;;;;;17.45;10.65;;;;;;;;;;5076471;28;20389;-93
2022/11/15 09:05:07;;;;;;;18.88;11.35;;;;;;;;;;5076350;28;20048;-92
2022/11/15 09:07:35;;;;;;;33.85;11.90;;;;;;;;;;5076508;28;20091;-93
2022/11/15 09:10:03;;;;;;;24.00;12.43;;;;;;;;;;5076510;28;20052;-93
2022/11/15 09:12:30;;;;;;;30.80;11.43;;;;;;;;;;5094097;28;20052;-93
2022/11/15 09:14:58;;;;;;;14.75;9.93;;;;;;;;;;5076264;28;20503;-93
2022/11/15 09:17:25;;;;;;;29.85;12.77;;;;;;;;;;5076525;28;20055;-92
2022/11/15 09:19:52;;;;;;;25.05;11.57;;;;;;;;;;5076255;28;20484;-93
2022/11/15 09:22:19;;;;;;;20.48;10.23;;;;;;;;;;5076829;28;20054;-93
2022/11/15 09:24:47;;;;;;;37.47;12.98;;;;;;;;;;5076634;28;20054;-94
2022/11/15 09:27:15;;;;;;;21.90;12.55;;;;;;;;;;5090874;28;20138;-92
2022/11/15 09:29:45;;;;;;;19.20;8.85;;;;;;;;;;5080241;28;20111;-93
2022/11/15 09:32:13;;;;;;;22.45;8.52;;;;;;;;;;5076175;28;20499;-93
2022/11/15 09:34:40;;;;;;;12.52;6.13;;;;;;;;;;5076082;28;20048;-95
2022/11/15 09:37:07;;;;;;;22.45;6.60;;;;;;;;;;5093769;28;20047;-94
2022/11/15 09:39:34;;;;;;;21.00;5.18;;;;;;;;;;5076048;28;20055;-95
2022/11/15 09:42:22;;;;;;;14.77;4.30;;;;;;;;;;5077040;28;20106;-96
2022/11/15 09:44:49;;;;;;;25.80;5.47;;;;;;;;;;5077431;28;20051;-94
2022/11/15 09:47:35;;;;;;;48.95;10.10;;;;;;;;;;5096179;28;20070;-96
2022/11/15 09:50:08;;;;;;;43.88;7.35;;;;;;;;;;5093661;28;20522;-96
2022/11/15 09:52:37;;;;;;;41.45;7.22;;;;;;;;;;5094110;28;20062;-94
2022/11/15 09:55:05;;;;;;;26.50;5.93;;;;;;;;;;5077884;28;20052;-96
2022/11/15 09:57:50;;;;;;;30.05;4.93;;;;;;;;;;5082571;28;20044;-96
2022/11/15 10:00:29;;;;;;;23.42;5.38;;;;;;;;;;5083858;28;20048;-93
2022/11/15 10:03:17;;;;;;;9.45;3.15;;;;;;;;;;5083275;28;20052;-95
2022/11/15 10:05:45;;;;;;;23.77;5.07;;;;;;;;;;5075974;28;20070;-96
2022/11/15 10:08:36;;;;;;;11.73;3.42;;;;;;;;;;5095113;28;20063;-94
2022/11/15 10:11:18;;;;;;;92.40;8.20;;;;;;;;;;5075747;28;20503;-95
2022/11/15 10:14:18;;;;;;;2.60;1.75;;;;;;;;;;5083251;28;20072;-94
2022/11/15 10:16:47;;;;;;;1.65;1.40;;;;;;;;;;5064907;28;20540;-94
2022/11/15 10:19:35;;;;;;;2.17;1.90;;;;;;;;;;5080222;28;20083;-94
2022/11/15 10:22:11;;;;;;;2.75;1.80;;;;;;;;;;5078758;28;20406;-96
2022/11/15 10:24:41;;;;;;;2.88;1.92;;;;;;;;;;5078827;28;20074;-94
2022/11/15 10:27:11;;;;;;;8.05;1.85;;;;;;;;;;5096957;28;20063;-95
2022/11/15 10:29:45;;;;;;;1.95;1.65;;;;;;;;;;5096317;28;20496;-95
2022/11/15 10:32:13;;;;;;;17.95;3.22;;;;;;;;;;5079989;28;20052;-94
2022/11/15 10:34:42;;;;;;;26.67;11.98;;;;;;;;;;5079880;28;20514;-93
2022/11/15 10:37:09;;;;;;;7.05;2.85;;;;;;;;;;5098797;28;20048;-96
2022/11/15 10:39:37;;;;;;;10.98;2.47;;;;;;;;;;5101676;28;20579;-95
2022/11/15 10:42:17;;;;;;;11.77;2.83;;;;;;;;;;5085047;28;20130;-95
2022/11/15 10:44:45;;;;;;;110.50;55.92;;;;;;;;;;5093030;28;20048;-95
2022/11/15 10:47:23;;;;;;;7.50;4.65;;;;;;;;;;5086333;28;20048;-96
2022/11/15 10:49:55;;;;;;;10.68;3.70;;;;;;;;;;5082005;28;20072;-95
2022/11/15 10:52:23;;;;;;;12.05;3.80;;;;;;;;;;5097073;28;20054;-95
2022/11/15 10:54:54;;;;;;;10.13;2.10;;;;;;;;;;5078757;28;20052;-94
2022/11/15 10:57:23;;;;;;;41.20;22.65;;;;;;;;;;5081443;28;20054;-94
2022/11/15 10:59:56;;;;;;;57.25;20.42;;;;;;;;;;5078673;28;20435;-91
2022/11/15 11:02:31;;;;;;;25.52;5.78;;;;;;;;;;5078627;28;20054;-92
2022/11/15 11:04:58;;;;;;;10.32;3.03;;;;;;;;;;5078571;28;20044;-93
2022/11/15 11:07:29;;;;;;;20.77;3.72;;;;;;;;;;5078554;28;20062;-93
2022/11/15 11:10:17;;;;;;;11.15;2.85;;;;;;;;;;5079706;28;20135;-95
2022/11/15 11:13:33;;;;;;;8.85;2.42;;;;;;;;;;5081613;28;20048;-93
2022/11/15 11:16:22;;;;;;;12.63;3.10;;;;;;;;;;5070279;28;20495;-92
2022/11/15 11:18:52;;;;;;;3.72;2.10;;;;;;;;;;5078818;28;20051;-94
2022/11/15 11:21:47;;;;;;;4.10;1.67;;;;;;;;;;5080410;28;20048;-94
2022/11/15 11:24:14;;;;;;;2.42;1.52;;;;;;;;;;5076801;28;20479;-94
2022/11/15 11:26:50;;;;;;;4.57;2.10;;;;;;;;;;5096124;28;20059;-94
2022/11/15 11:29:42;;;;;;;39.95;4.63;;;;;;;;;;5096197;28;20048;-94
2022/11/15 11:32:15;;;;;;;45.85;6.43;;;;;;;;;;5078039;28;20052;-93
2022/11/15 11:34:59;;;;;;;24.90;5.15;;;;;;;;;;5078037;28;20044;-94
2022/11/15 11:37:44;;;;;;;4.88;2.20;;;;;;;;;;5077929;28;20052;-92
2022/11/15 11:40:14;;;;;;;10.30;2.22;;;;;;;;;;5095834;28;20052;-93
2022/11/15 11:42:59;;;;;;;2.42;1.50;;;;;;;;;;5096280;28;20075;-93
2022/11/15 11:45:36;;;;;;;10.77;2.00;;;;;;;;;;5077948;28;20453;-91
2022/11/15 11:48:14;;;;;;;3.92;1.65;;;;;;;;;;5078864;28;20058;-93
2022/11/15 11:50:42;;;;;;;3.35;1.10;;;;;;;;;;5094837;28;20047;-92
2022/11/15 11:53:27;;;;;;;3.80;1.15;;;;;;;;;;5077887;28;20048;-93
2022/11/15 11:55:56;;;;;;;4.03;1.30;;;;;;;;;;5095071;28;20047;-93
2022/11/15 11:58:33;;;;;;;1.38;1.20;;;;;;;;;;5077560;28;20059;-92
2022/11/15 12:01:15;;;;;;;3.47;1.90;;;;;;;;;;5078652;28;20050;-92
2022/11/15 12:03:48;;;;;;;1.63;1.50;;;;;;;;;;5095278;28;20052;-92
2022/11/15 12:06:22;;;;;;;3.42;1.38;;;;;;;;;;5077451;28;20044;-95
2022/11/15 12:09:12;;;;;;;1.50;1.40;;;;;;;;;;5096763;28;20476;-93
2022/11/15 12:11:49;;;;;;;5.43;1.60;;;;;;;;;;5077111;28;20143;-93
2022/11/15 12:14:25;;;;;;;3.45;1.50;;;;;;;;;;5076919;28;20048;-91
2022/11/15 12:16:52;;;;;;;3.72;1.75;;;;;;;;;;5078606;28;20407;-94
2022/11/15 12:19:20;;;;;;;4.38;1.95;;;;;;;;;;5079340;28;20502;-92
2022/11/15 12:21:54;;;;;;;3.83;1.50;;;;;;;;;;5077263;28;20047;-94
2022/11/15 12:24:27;;;;;;;3.05;2.00;;;;;;;;;;5077215;28;20052;-93
2022/11/15 12:27:03;;;;;;;2.53;1.58;;;;;;;;;;5078172;28;20051;-92
2022/11/15 12:29:37;;;;;;;3.30;1.50;;;;;;;;;;5077119;28;20052;-93
2022/11/15 12:32:05;;;;;;;5.43;2.03;;;;;;;;;;5077267;28;20488;-93
2022/11/15 12:34:38;;;;;;;7.93;1.70;;;;;;;;;;5077063;28;20044;-91
2022/11/15 12:37:25;;;;;;;4.30;1.90;;;;;;;;;;5077080;28;20048;-94
2022/11/15 12:40:07;;;;;;;2.38;1.42;;;;;;;;;;5078064;28;20392;-93
2022/11/15 12:42:36;;;;;;;2.50;1.77;;;;;;;;;;5078426;28;20052;-92
2022/11/15 12:45:23;;;;;;;10.65;1.88;;;;;;;;;;5076431;28;20070;-94
2022/11/15 12:47:50;;;;;;;3.22;1.20;;;;;;;;;;5076649;28;20055;-95
2022/11/15 12:50:37;;;;;;;7.20;1.80;;;;;;;;;;5079232;28;20399;-92
2022/11/15 12:53:23;;;;;;;8.57;1.77;;;;;;;;;;5076663;28;20048;-91
2022/11/15 12:56:02;;;;;;;4.57;1.73;;;;;;;;;;5076566;28;20048;-94
2022/11/15 12:58:42;;;;;;;1.63;1.52;;;;;;;;;;5077688;28;20040;-96
2022/11/15 13:01:10;;;;;;;2.35;1.73;;;;;;;;;;5076871;28;20051;-94
2022/11/15 13:03:57;;;;;;;3.85;1.40;;;;;;;;;;5076657;28;20446;-94
2022/11/15 13:06:38;;;;;;;6.75;1.52;;;;;;;;;;5076283;28;20040;-92
2022/11/15 13:09:25;;;;;;;2.95;1.55;;;;;;;;;;5076363;28;20140;-93
2022/11/15 13:11:53;;;;;;;8.98;2.28;;;;;;;;;;5076581;28;20056;-93
2022/11/15 13:14:39;;;;;;;1.63;1.52;;;;;;;;;;5077006;28;20062;-93
2022/11/15 13:17:37;;;;;;;18.60;3.70;;;;;;;;;;5076460;28;20056;-93
2022/11/15 13:20:07;;;;;;;31.27;6.85;;;;;;;;;;5068224;28;20051;-93
2022/11/15 13:22:51;;;;;;;24.98;5.95;;;;;;;;;;5076519;28;20056;-93
2022/11/15 13:25:19;;;;;;;;;;;;;;;;;;5077443;28;20415;-93
2022/11/15 13:27:48;;;;;;;3.08;1.70;;;;;;;;;;5093318;28;19927;-94
2022/11/15 13:30:19;;;;;;;49.55;10.13;;;;;;;;;;5076517;28;20514;-92
2022/11/15 13:32:47;;;;;;;32.13;6.25;;;;;;;;;;5076244;28;20059;-93
2022/11/15 13:35:27;;;;;;;36.03;6.30;;;;;;;;;;5075955;28;20052;-92
2022/11/15 13:37:56;;;;;;;18.92;4.70;;;;;;;;;;5076222;28;20142;-92
2022/11/15 13:40:27;;;;;;;32.35;6.32;;;;;;;;;;5076064;28;20078;-92
2022/11/15 13:42:54;;;;;;;39.30;6.70;;;;;;;;;;5076460;28;20048;-93
2022/11/15 13:45:22;;;;;;;34.60;5.90;;;;;;;;;;5076157;28;20052;-92
2022/11/15 13:47:55;;;;;;;22.42;4.85;;;;;;;;;;5075929;28;20050;-93
2022/11/15 13:50:28;;;;;;;17.38;3.60;;;;;;;;;;5076167;28;20051;-93
2022/11/15 13:52:58;;;;;;;22.27;3.90;;;;;;;;;;5076202;28;20052;-92
2022/11/15 13:55:25;;;;;;;7.97;2.33;;;;;;;;;;5076125;28;20048;-92
2022/11/15 13:57:58;;;;;;;9.15;2.75;;;;;;;;;;5076173;28;20142;-93
2022/11/15 14:00:45;;;;;;;5.97;2.70;;;;;;;;;;5076279;28;20044;-92
2022/11/15 14:03:20;;;;;;;10.48;3.55;;;;;;;;;;5077684;28;20425;-93
2022/11/15 14:06:02;;;;;;;8.20;2.28;;;;;;;;;;5078532;28;20063;-92
2022/11/15 14:08:30;;;;;;;9.23;2.63;;;;;;;;;;5075737;28;20124;-92
2022/11/15 14:11:27;;;;;;;12.23;2.65;;;;;;;;;;5076030;28;20048;-91
2022/11/15 14:14:03;;;;;;;4.53;2.28;;;;;;;;;;5071226;28;20495;-92
2022/11/15 14:16:35;;;;;;;7.43;2.60;;;;;;;;;;5079947;28;20435;-93
2022/11/15 14:19:03;;;;;;;7.35;2.38;;;;;;;;;;5079778;28;20070;-92
2022/11/15 14:21:30;;;;;;;12.25;2.95;;;;;;;;;;5079719;28;20051;-92
2022/11/15 14:24:16;;;;;;;12.93;2.80;;;;;;;;;;5079819;28;20044;-92
2022/11/15 14:26:43;;;;;;;2.63;2.00;;;;;;;;;;5082780;28;20056;-92
2022/11/15 14:29:23;;;;;;;11.60;2.80;;;;;;;;;;5079820;28;20055;-91
2022/11/15 14:31:50;;;;;;;4.82;2.40;;;;;;;;;;5079759;28;20050;-92
2022/11/15 14:34:17;;;;;;;22.95;4.85;;;;;;;;;;5079559;28;20052;-92
2022/11/15 14:36:44;;;;;;;21.10;4.20;;;;;;;;;;5079774;28;20377;-91
2022/11/15 14:39:12;;;;;;;32.05;5.13;;;;;;;;;;5079476;28;20044;-92
2022/11/15 14:41:39;;;;;;;38.50;5.53;;;;;;;;;;5078264;28;20112;-91
2022/11/15 14:44:07;;;;;;;21.90;5.40;;;;;;;;;;5079416;28;20040;-91
2022/11/15 14:46:34;;;;;;;20.83;5.05;;;;;;;;;;5079968;28;20059;-92
2022/11/15 14:49:01;;;;;;;15.02;3.35;;;;;;;;;;5080143;28;20044;-91
2022/11/15 14:51:28;;;;;;;22.45;4.18;;;;;;;;;;5079894;28;20054;-92
2022/11/15 14:53:55;;;;;;;17.23;4.47;;;;;;;;;;5079745;28;20063;-92
2022/11/15 14:56:22;;;;;;;19.17;4.38;;;;;;;;;;5080112;28;20040;-91
2022/11/15 14:58:50;;;;;;;12.00;3.72;;;;;;;;;;5079745;28;20052;-92
2022/11/15 15:01:20;;;;;;;27.00;5.80;;;;;;;;;;5079959;28;20050;-93
2022/11/15 15:03:47;;;;;;;21.30;5.43;;;;;;;;;;5080602;28;20048;-92
2022/11/15 15:06:14;;;;;;;24.77;6.38;;;;;;;;;;5079800;28;20056;-91